sensor_id;sensor_type;location;lat;lon;timestamp;pressure;altitude;pressure_sealevel;temperature;humidity
48792;BME280;34587;48.816;9.420;2024-01-16T00:00:56;98269.09;;;-0.82;100.00
48792;BME280;34587;48.816;9.420;2024-01-16T00:03:21;98263.34;;;-0.71;100.00
48792;BME280;34587;48.816;9.420;2024-01-16T00:05:47;98260.66;;;-0.81;100.00
48792;BME280;34587;48.816;9.420;2024-01-16T00:08:12;98258.28;;;-0.70;100.00
48792;BME280;34587;48.816;9.420;2024-01-16T00:10:37;98260.09;;;-0.64;100.00
48792;BME280;34587;48.816;9.420;2024-01-16T00:13:03;98264.31;;;-0.66;100.00
48792;BME280;34587;48.816;9.420;2024-01-16T00:15:28;98263.31;;;-0.73;100.00
48792;BME280;34587;48.816;9.420;2024-01-16T00:17:53;98263.34;;;-0.71;100.00
48792;BME280;34587;48.816;9.420;2024-01-16T00:20:19;98258.22;;;-0.74;100.00
48792;BME280;34587;48.816;9.420;2024-01-16T00:22:44;98248.81;;;-0.79;100.00
48792;BME280;34587;48.816;9.420;2024-01-16T00:25:09;98255.56;;;-0.81;100.00
48792;BME280;34587;48.816;9.420;2024-01-16T00:27:35;98266.44;;;-0.88;100.00
48792;BME280;34587;48.816;9.420;2024-01-16T00:30:00;98265.66;;;-0.84;100.00
48792;BME280;34587;48.816;9.420;2024-01-16T00:32:25;98265.44;;;-0.96;100.00
48792;BME280;34587;48.816;9.420;2024-01-16T00:34:50;98266.31;;;-0.94;100.00
48792;BME280;34587;48.816;9.420;2024-01-16T00:37:16;98270.53;;;-0.96;100.00
48792;BME280;34587;48.816;9.420;2024-01-16T00:39:42;98267.38;;;-0.83;100.00
48792;BME280;34587;48.816;9.420;2024-01-16T00:42:07;98265.44;;;-0.96;100.00
48792;BME280;34587;48.816;9.420;2024-01-16T00:44:33;98267.25;;;-0.89;100.00
48792;BME280;34587;48.816;9.420;2024-01-16T00:46:59;98273.94;;;-0.95;100.00
48792;BME280;34587;48.816;9.420;2024-01-16T00:49:26;98273.03;;;-0.97;100.00
48792;BME280;34587;48.816;9.420;2024-01-16T00:51:52;98279.03;;;-0.94;100.00
48792;BME280;34587;48.816;9.420;2024-01-16T00:54:17;98268.94;;;-0.91;100.00
48792;BME280;34587;48.816;9.420;2024-01-16T00:56:42;98273.63;;;-1.11;100.00
48792;BME280;34587;48.816;9.420;2024-01-16T00:59:08;98276.19;;;-1.11;100.00
48792;BME280;34587;48.816;9.420;2024-01-16T05:15:21;98330.09;;;-4.08;100.00
48792;BME280;34587;48.816;9.420;2024-01-16T05:17:46;98324.13;;;-4.10;100.00
48792;BME280;34587;48.816;9.420;2024-01-16T05:20:12;98321.34;;;-4.18;100.00
48792;BME280;34587;48.816;9.420;2024-01-16T05:22:37;98317.81;;;-4.23;100.00
48792;BME280;34587;48.816;9.420;2024-01-16T05:25:06;98322.00;;;-4.24;100.00
48792;BME280;34587;48.816;9.420;2024-01-16T05:27:32;98316.09;;;-4.24;100.00
48792;BME280;34587;48.816;9.420;2024-01-16T05:29:58;98308.81;;;-4.15;100.00
48792;BME280;34587;48.816;9.420;2024-01-16T05:32:23;98306.88;;;-4.22;100.00
48792;BME280;34587;48.816;9.420;2024-01-16T05:34:48;98308.06;;;-4.11;100.00
48792;BME280;34587;48.816;9.420;2024-01-16T05:37:14;98302.81;;;-4.17;100.00
48792;BME280;34587;48.816;9.420;2024-01-16T05:39:39;98301.28;;;-4.12;100.00
48792;BME280;34587;48.816;9.420;2024-01-16T05:42:04;98296.88;;;-4.19;100.00
48792;BME280;34587;48.816;9.420;2024-01-16T05:44:30;98293.28;;;-3.99;100.00
48792;BME280;34587;48.816;9.420;2024-01-16T05:46:55;98308.19;;;-4.08;100.00
48792;BME280;34587;48.816;9.420;2024-01-16T05:49:21;98302.06;;;-4.15;100.00
48792;BME280;34587;48.816;9.420;2024-01-16T05:51:46;98296.47;;;-4.06;100.00
48792;BME280;34587;48.816;9.420;2024-01-16T05:54:11;98290.31;;;-4.13;100.00
48792;BME280;34587;48.816;9.420;2024-01-16T05:56:36;98290.25;;;-4.16;100.00
48792;BME280;34587;48.816;9.420;2024-01-16T05:59:02;98296.25;;;-4.12;100.00
48792;BME280;34587;48.816;9.420;2024-01-16T06:01:27;98289.66;;;-4.07;100.00
48792;BME280;34587;48.816;9.420;2024-01-16T06:03:52;98294.72;;;-4.07;100.00
48792;BME280;34587;48.816;9.420;2024-01-16T06:06:18;98293.09;;;-4.05;100.00
48792;BME280;34587;48.816;9.420;2024-01-16T06:08:44;98290.31;;;-4.13;100.00
48792;BME280;34587;48.816;9.420;2024-01-16T06:11:10;98285.38;;;-4.09;100.00
48792;BME280;34587;48.816;9.420;2024-01-16T06:13:36;98289.47;;;-4.13;100.00
48792;BME280;34587;48.816;9.420;2024-01-16T06:16:01;98286.34;;;-4.06;100.00
48792;BME280;34587;48.816;9.420;2024-01-16T06:18:28;98285.00;;;-3.95;100.00
48792;BME280;34587;48.816;9.420;2024-01-16T06:20:53;98290.69;;;-3.73;100.00
48792;BME280;34587;48.816;9.420;2024-01-16T06:23:18;98285.34;;;-3.82;100.00
48792;BME280;34587;48.816;9.420;2024-01-16T06:25:43;98284.47;;;-3.84;100.00
48792;BME280;34587;48.816;9.420;2024-01-16T06:28:09;98282.81;;;-3.82;100.00
48792;BME280;34587;48.816;9.420;2024-01-16T06:30:34;98293.88;;;-3.80;100.00
48792;BME280;34587;48.816;9.420;2024-01-16T06:32:59;98296.69;;;-3.71;100.00
48792;BME280;34587;48.816;9.420;2024-01-16T06:35:25;98291.78;;;-3.65;100.00
48792;BME280;34587;48.816;9.420;2024-01-16T06:37:50;98284.19;;;-3.65;100.00
48792;BME280;34587;48.816;9.420;2024-01-16T06:40:16;98289.16;;;-3.68;100.00
48792;BME280;34587;48.816;9.420;2024-01-16T06:42:41;98281.53;;;-3.70;100.00
48792;BME280;34587;48.816;9.420;2024-01-16T06:45:06;98285.47;;;-3.79;100.00
48792;BME280;34587;48.816;9.420;2024-01-16T06:47:32;98280.03;;;-3.63;100.00
48792;BME280;34587;48.816;9.420;2024-01-16T06:49:58;98289.09;;;-3.71;100.00
48792;BME280;34587;48.816;9.420;2024-01-16T06:52:23;98292.44;;;-3.72;100.00
48792;BME280;34587;48.816;9.420;2024-01-16T06:54:49;98285.63;;;-3.73;100.00
48792;BME280;34587;48.816;9.420;2024-01-16T06:57:15;98290.13;;;-3.65;100.00
48792;BME280;34587;48.816;9.420;2024-01-16T06:59:40;98298.81;;;-3.56;100.00
48792;BME280;34587;48.816;9.420;2024-01-16T07:02:06;98288.53;;;-3.61;100.00
48792;BME280;34587;48.816;9.420;2024-01-16T07:04:31;98286.56;;;-3.43;100.00
48792;BME280;34587;48.816;9.420;2024-01-16T07:06:56;98291.34;;;-3.52;100.00
48792;BME280;34587;48.816;9.420;2024-01-16T07:09:22;98294.63;;;-3.54;100.00
48792;BME280;34587;48.816;9.420;2024-01-16T07:11:48;98297.00;;;-3.60;100.00
48792;BME280;34587;48.816;9.420;2024-01-16T07:14:13;98296.84;;;-3.65;100.00
48792;BME280;34587;48.816;9.420;2024-01-16T07:16:39;98297.16;;;-3.54;100.00
48792;BME280;34587;48.816;9.420;2024-01-16T07:19:04;98294.78;;;-3.50;100.00
48792;BME280;34587;48.816;9.420;2024-01-16T07:21:30;98304.28;;;-3.43;100.00
48792;BME280;34587;48.816;9.420;2024-01-16T07:23:55;98302.41;;;-3.48;100.00
48792;BME280;34587;48.816;9.420;2024-01-16T07:26:22;98303.53;;;-3.39;100.00
48792;BME280;34587;48.816;9.420;2024-01-16T07:28:47;98300.22;;;-3.38;100.00
48792;BME280;34587;48.816;9.420;2024-01-16T07:31:13;98301.47;;;-3.23;100.00
48792;BME280;34587;48.816;9.420;2024-01-16T07:33:39;98299.00;;;-3.20;100.00
48792;BME280;34587;48.816;9.420;2024-01-16T07:36:05;98300.34;;;-3.03;100.00
48792;BME280;34587;48.816;9.420;2024-01-16T07:38:31;98299.44;;;-3.05;100.00
48792;BME280;34587;48.816;9.420;2024-01-16T07:40:56;98296.25;;;-2.98;100.00
48792;BME280;34587;48.816;9.420;2024-01-16T07:43:21;98298.06;;;-2.94;100.00
48792;BME280;34587;48.816;9.420;2024-01-16T07:45:47;98298.66;;;-3.02;100.00
48792;BME280;34587;48.816;9.420;2024-01-16T07:48:13;98296.09;;;-3.04;100.00
48792;BME280;34587;48.816;9.420;2024-01-16T07:50:38;98294.47;;;-3.02;100.00
48792;BME280;34587;48.816;9.420;2024-01-16T07:53:03;98297.88;;;-3.00;100.00
48792;BME280;34587;48.816;9.420;2024-01-16T07:55:29;98287.84;;;-2.97;100.00
48792;BME280;34587;48.816;9.420;2024-01-16T07:57:54;98286.22;;;-2.95;100.00
48792;BME280;34587;48.816;9.420;2024-01-16T08:00:20;98290.03;;;-2.79;100.00
48792;BME280;34587;48.816;9.420;2024-01-16T08:02:45;98290.38;;;-2.65;100.00
48792;BME280;34587;48.816;9.420;2024-01-16T08:05:11;98284.00;;;-2.51;100.00
48792;BME280;34587;48.816;9.420;2024-01-16T08:07:36;98282.72;;;-2.34;100.00
48792;BME280;34587;48.816;9.420;2024-01-16T08:10:02;98292.38;;;-2.53;100.00
48792;BME280;34587;48.816;9.420;2024-01-16T08:12:27;98284.22;;;-2.42;100.00
48792;BME280;34587;48.816;9.420;2024-01-16T08:14:52;98291.16;;;-2.35;100.00
48792;BME280;34587;48.816;9.420;2024-01-16T08:17:18;98291.97;;;-2.01;100.00
48792;BME280;34587;48.816;9.420;2024-01-16T08:19:43;98295.91;;;-1.77;100.00
48792;BME280;34587;48.816;9.420;2024-01-16T08:22:09;98290.75;;;-1.43;100.00
48792;BME280;34587;48.816;9.420;2024-01-16T08:24:34;98287.75;;;-1.25;100.00
48792;BME280;34587;48.816;9.420;2024-01-16T08:26:59;98289.03;;;-1.03;100.00
48792;BME280;34587;48.816;9.420;2024-01-16T08:29:24;98286.59;;;-0.97;100.00
48792;BME280;34587;48.816;9.420;2024-01-16T08:31:50;98276.00;;;-0.74;100.00
48792;BME280;34587;48.816;9.420;2024-01-16T08:34:17;98283.25;;;-0.49;100.00
48792;BME280;34587;48.816;9.420;2024-01-16T08:36:44;98284.56;;;-0.24;100.00
48792;BME280;34587;48.816;9.420;2024-01-16T08:39:09;98290.91;;;0.04;100.00
48792;BME280;34587;48.816;9.420;2024-01-16T08:41:35;98283.66;;;0.29;100.00
48792;BME280;34587;48.816;9.420;2024-01-16T08:44:00;98289.00;;;0.44;91.31
48792;BME280;34587;48.816;9.420;2024-01-16T08:46:26;98290.50;;;0.33;90.07
48792;BME280;34587;48.816;9.420;2024-01-16T08:48:51;98287.44;;;-0.01;87.52
48792;BME280;34587;48.816;9.420;2024-01-16T08:51:16;98287.88;;;-0.28;91.46
48792;BME280;34587;48.816;9.420;2024-01-16T08:53:42;98288.81;;;-0.21;96.31
48792;BME280;34587;48.816;9.420;2024-01-16T08:56:07;98297.63;;;-0.01;90.49
48792;BME280;34587;48.816;9.420;2024-01-16T08:58:33;98301.03;;;-0.01;93.87
48792;BME280;34587;48.816;9.420;2024-01-16T09:01:02;98304.63;;;0.12;88.18
48792;BME280;34587;48.816;9.420;2024-01-16T09:03:28;98308.03;;;0.11;89.04
48792;BME280;34587;48.816;9.420;2024-01-16T09:05:53;98303.50;;;-0.07;90.45
48792;BME280;34587;48.816;9.420;2024-01-16T09:08:18;98316.38;;;0.04;97.09
48792;BME280;34587;48.816;9.420;2024-01-16T09:10:43;98310.56;;;0.11;100.00
48792;BME280;34587;48.816;9.420;2024-01-16T09:13:09;98314.50;;;0.47;99.48
48792;BME280;34587;48.816;9.420;2024-01-16T09:15:34;98310.59;;;0.70;85.19
48792;BME280;34587;48.816;9.420;2024-01-16T09:17:59;98308.75;;;0.62;87.74
48792;BME280;34587;48.816;9.420;2024-01-16T09:20:25;98296.00;;;0.59;85.78
48792;BME280;34587;48.816;9.420;2024-01-16T09:22:50;98301.72;;;1.11;80.73
48792;BME280;34587;48.816;9.420;2024-01-16T09:25:15;98311.19;;;1.16;79.64
48792;BME280;34587;48.816;9.420;2024-01-16T09:27:42;98302.69;;;1.20;78.72
48792;BME280;34587;48.816;9.420;2024-01-16T09:30:07;98305.81;;;0.96;73.67
48792;BME280;34587;48.816;9.420;2024-01-16T09:32:33;98308.59;;;1.15;71.19
48792;BME280;34587;48.816;9.420;2024-01-16T09:35:01;98316.19;;;1.10;72.65
48792;BME280;34587;48.816;9.420;2024-01-16T09:37:28;98309.03;;;0.82;77.88
48792;BME280;34587;48.816;9.420;2024-01-16T09:39:53;98311.25;;;1.22;74.65
48792;BME280;34587;48.816;9.420;2024-01-16T09:42:19;98316.06;;;1.01;83.18
48792;BME280;34587;48.816;9.420;2024-01-16T09:44:44;98310.94;;;0.98;82.20
48792;BME280;34587;48.816;9.420;2024-01-16T09:47:10;98314.41;;;1.03;76.93
48792;BME280;34587;48.816;9.420;2024-01-16T09:49:36;98307.63;;;1.05;74.61
48792;BME280;34587;48.816;9.420;2024-01-16T09:52:04;98302.34;;;0.90;71.70
48792;BME280;34587;48.816;9.420;2024-01-16T09:54:30;98303.78;;;1.41;77.96
48792;BME280;34587;48.816;9.420;2024-01-16T09:56:58;98308.63;;;1.18;70.49
48792;BME280;34587;48.816;9.420;2024-01-16T09:59:24;98297.69;;;1.29;66.85
48792;BME280;34587;48.816;9.420;2024-01-16T10:01:51;98299.91;;;1.79;69.21
48792;BME280;34587;48.816;9.420;2024-01-16T10:04:19;98297.53;;;1.99;73.79
48792;BME280;34587;48.816;9.420;2024-01-16T10:06:45;98298.38;;;2.00;70.32
48792;BME280;34587;48.816;9.420;2024-01-16T10:09:14;98300.00;;;1.92;68.50
48792;BME280;34587;48.816;9.420;2024-01-16T10:11:40;98296.75;;;2.13;71.59
48792;BME280;34587;48.816;9.420;2024-01-16T10:14:05;98299.53;;;2.42;66.98
48792;BME280;34587;48.816;9.420;2024-01-16T10:19:22;98281.81;;;2.66;61.94
48792;BME280;34587;48.816;9.420;2024-01-16T10:21:48;98277.59;;;2.83;60.43
48792;BME280;34587;48.816;9.420;2024-01-16T10:24:13;98276.13;;;3.56;57.95
48792;BME280;34587;48.816;9.420;2024-01-16T10:26:38;98278.53;;;2.98;55.95
48792;BME280;34587;48.816;9.420;2024-01-16T10:29:04;98276.06;;;3.33;54.20
48792;BME280;34587;48.816;9.420;2024-01-16T10:31:31;98270.06;;;3.17;52.15
48792;BME280;34587;48.816;9.420;2024-01-16T10:33:57;98264.88;;;2.99;56.56
48792;BME280;34587;48.816;9.420;2024-01-16T10:36:23;98254.72;;;3.23;57.09
48792;BME280;34587;48.816;9.420;2024-01-16T10:38:50;98263.16;;;2.95;56.98
48792;BME280;34587;48.816;9.420;2024-01-16T10:41:22;98251.31;;;3.21;56.70
48792;BME280;34587;48.816;9.420;2024-01-16T10:44:03;98244.53;;;3.39;56.44
48792;BME280;34587;48.816;9.420;2024-01-16T10:46:29;98250.53;;;3.65;54.35
48792;BME280;34587;48.816;9.420;2024-01-16T10:49:03;98249.66;;;3.55;54.74
48792;BME280;34587;48.816;9.420;2024-01-16T10:51:30;98248.84;;;3.82;55.37
48792;BME280;34587;48.816;9.420;2024-01-16T10:54:04;98253.06;;;3.47;57.40
48792;BME280;34587;48.816;9.420;2024-01-16T10:56:35;98249.63;;;4.55;52.48
48792;BME280;34587;48.816;9.420;2024-01-16T10:59:12;98243.19;;;5.52;49.45
48792;BME280;34587;48.816;9.420;2024-01-16T11:01:43;98244.59;;;5.98;45.46
48792;BME280;34587;48.816;9.420;2024-01-16T11:04:12;98231.94;;;7.33;42.12
48792;BME280;34587;48.816;9.420;2024-01-16T11:06:38;98228.22;;;7.53;40.31
48792;BME280;34587;48.816;9.420;2024-01-16T11:09:05;98228.69;;;7.19;43.13
48792;BME280;34587;48.816;9.420;2024-01-16T11:11:33;98221.91;;;7.12;41.61
48792;BME280;34587;48.816;9.420;2024-01-16T11:14:02;98226.00;;;6.56;41.92
48792;BME280;34587;48.816;9.420;2024-01-16T11:16:28;98215.00;;;5.41;44.81
48792;BME280;34587;48.816;9.420;2024-01-16T11:18:56;98214.84;;;5.63;45.84
48792;BME280;34587;48.816;9.420;2024-01-16T11:21:22;98204.69;;;5.45;46.33
48792;BME280;34587;48.816;9.420;2024-01-16T11:23:47;98199.56;;;6.43;44.05
48792;BME280;34587;48.816;9.420;2024-01-16T11:28:58;98178.59;;;7.38;42.17
48792;BME280;34587;48.816;9.420;2024-01-16T11:31:34;98168.59;;;9.09;37.69
48792;BME280;34587;48.816;9.420;2024-01-16T11:34:01;98171.72;;;8.42;36.61
48792;BME280;34587;48.816;9.420;2024-01-16T11:39:18;98149.53;;;12.44;32.11
48792;BME280;34587;48.816;9.420;2024-01-16T11:44:48;98145.88;;;13.19;31.58
48792;BME280;34587;48.816;9.420;2024-01-16T11:47:18;98141.31;;;13.69;30.37
48792;BME280;34587;48.816;9.420;2024-01-16T11:49:44;98148.38;;;13.45;29.52
48792;BME280;34587;48.816;9.420;2024-01-16T11:52:09;98130.59;;;14.38;29.39
48792;BME280;34587;48.816;9.420;2024-01-16T11:54:37;98123.16;;;14.49;28.30
48792;BME280;34587;48.816;9.420;2024-01-16T11:57:26;98112.19;;;16.41;26.48
48792;BME280;34587;48.816;9.420;2024-01-16T12:00:02;98130.09;;;13.89;28.92
48792;BME280;34587;48.816;9.420;2024-01-16T12:02:53;98117.91;;;14.88;28.06
48792;BME280;34587;48.816;9.420;2024-01-16T12:05:21;98124.78;;;11.01;31.52
48792;BME280;34587;48.816;9.420;2024-01-16T12:07:50;98117.75;;;13.30;29.83
48792;BME280;34587;48.816;9.420;2024-01-16T12:10:20;98116.06;;;11.32;30.68
48792;BME280;34587;48.816;9.420;2024-01-16T12:12:47;98098.44;;;14.19;29.47
48792;BME280;34587;48.816;9.420;2024-01-16T12:15:22;98116.50;;;13.17;28.81
48792;BME280;34587;48.816;9.420;2024-01-16T12:17:58;98103.06;;;14.90;28.41
48792;BME280;34587;48.816;9.420;2024-01-16T12:20:26;98102.31;;;15.06;27.72
48792;BME280;34587;48.816;9.420;2024-01-16T12:23:13;98114.19;;;11.64;30.80
48792;BME280;34587;48.816;9.420;2024-01-16T12:25:38;98117.22;;;8.96;36.19
48792;BME280;34587;48.816;9.420;2024-01-16T12:28:05;98116.13;;;7.75;38.74
48792;BME280;34587;48.816;9.420;2024-01-16T12:30:34;98101.34;;;9.12;37.12
48792;BME280;34587;48.816;9.420;2024-01-16T12:33:06;98086.06;;;10.67;35.55
48792;BME280;34587;48.816;9.420;2024-01-16T12:35:39;98084.13;;;11.03;34.08
48792;BME280;34587;48.816;9.420;2024-01-16T12:38:09;98084.03;;;9.85;33.89
48792;BME280;34587;48.816;9.420;2024-01-16T12:40:36;98086.88;;;7.76;36.03
48792;BME280;34587;48.816;9.420;2024-01-16T12:43:02;98092.75;;;6.10;39.54
48792;BME280;34587;48.816;9.420;2024-01-16T12:45:28;98098.81;;;5.03;42.02
48792;BME280;34587;48.816;9.420;2024-01-16T12:47:54;98106.78;;;4.58;43.70
48792;BME280;34587;48.816;9.420;2024-01-16T12:50:24;98099.16;;;4.48;44.02
48792;BME280;34587;48.816;9.420;2024-01-16T12:52:50;98097.22;;;4.89;44.40
48792;BME280;34587;48.816;9.420;2024-01-16T12:55:16;98092.78;;;5.10;44.38
48792;BME280;34587;48.816;9.420;2024-01-16T12:57:42;98089.63;;;4.74;45.62
48792;BME280;34587;48.816;9.420;2024-01-16T13:00:25;98094.81;;;4.60;44.12
48792;BME280;34587;48.816;9.420;2024-01-16T13:02:53;98086.69;;;5.23;44.99
48792;BME280;34587;48.816;9.420;2024-01-16T13:05:22;98080.00;;;5.04;43.20
48792;BME280;34587;48.816;9.420;2024-01-16T13:07:59;98079.13;;;5.08;43.06
48792;BME280;34587;48.816;9.420;2024-01-16T13:10:25;98090.22;;;5.13;43.43
48792;BME280;34587;48.816;9.420;2024-01-16T13:12:50;98073.03;;;6.10;41.44
48792;BME280;34587;48.816;9.420;2024-01-16T13:15:16;98058.44;;;6.76;39.49
48792;BME280;34587;48.816;9.420;2024-01-16T13:17:42;98056.16;;;6.56;38.29
48792;BME280;34587;48.816;9.420;2024-01-16T13:20:07;98064.09;;;5.60;42.02
48792;BME280;34587;48.816;9.420;2024-01-16T13:22:35;98052.31;;;5.36;41.76
48792;BME280;34587;48.816;9.420;2024-01-16T13:25:00;98047.63;;;4.81;43.07
48792;BME280;34587;48.816;9.420;2024-01-16T13:27:26;98046.09;;;4.56;44.09
48792;BME280;34587;48.816;9.420;2024-01-16T13:29:51;98042.72;;;4.45;44.29
48792;BME280;34587;48.816;9.420;2024-01-16T13:32:17;98038.47;;;4.39;46.22
48792;BME280;34587;48.816;9.420;2024-01-16T13:34:42;98031.84;;;4.01;44.68
48792;BME280;34587;48.816;9.420;2024-01-16T13:37:19;98036.69;;;4.56;46.00
48792;BME280;34587;48.816;9.420;2024-01-16T13:39:46;98030.66;;;4.65;43.13
48792;BME280;34587;48.816;9.420;2024-01-16T13:42:11;98020.16;;;4.96;44.72
48792;BME280;34587;48.816;9.420;2024-01-16T13:44:36;98021.69;;;5.18;42.98
48792;BME280;34587;48.816;9.420;2024-01-16T13:47:02;98017.28;;;5.32;43.03
48792;BME280;34587;48.816;9.420;2024-01-16T13:49:28;98025.47;;;4.71;42.37
48792;BME280;34587;48.816;9.420;2024-01-16T13:51:54;98016.56;;;5.18;41.90
48792;BME280;34587;48.816;9.420;2024-01-16T13:54:19;98021.56;;;5.30;42.70
48792;BME280;34587;48.816;9.420;2024-01-16T13:56:44;98011.84;;;5.60;42.18
48792;BME280;34587;48.816;9.420;2024-01-16T13:59:11;98030.06;;;5.38;42.92
48792;BME280;34587;48.816;9.420;2024-01-16T14:01:36;98026.91;;;5.06;42.75
48792;BME280;34587;48.816;9.420;2024-01-16T14:04:02;98033.94;;;4.82;41.73
48792;BME280;34587;48.816;9.420;2024-01-16T14:06:27;98025.63;;;4.44;44.27
48792;BME280;34587;48.816;9.420;2024-01-16T14:08:52;98020.63;;;4.19;45.30
48792;BME280;34587;48.816;9.420;2024-01-16T14:11:17;98017.34;;;3.93;45.68
48792;BME280;34587;48.816;9.420;2024-01-16T14:13:43;98014.78;;;3.90;44.93
48792;BME280;34587;48.816;9.420;2024-01-16T14:16:09;98011.44;;;3.71;45.73
48792;BME280;34587;48.816;9.420;2024-01-16T14:18:34;98015.78;;;3.37;46.11
48792;BME280;34587;48.816;9.420;2024-01-16T14:21:01;98017.50;;;3.38;46.40
48792;BME280;34587;48.816;9.420;2024-01-16T14:23:26;98008.88;;;3.66;46.52
48792;BME280;34587;48.816;9.420;2024-01-16T14:25:51;98000.34;;;3.73;44.63
48792;BME280;34587;48.816;9.420;2024-01-16T14:28:16;98002.94;;;3.59;45.64
48792;BME280;34587;48.816;9.420;2024-01-16T14:30:42;98002.97;;;3.58;45.42
48792;BME280;34587;48.816;9.420;2024-01-16T14:33:07;98010.66;;;3.49;46.23
48792;BME280;34587;48.816;9.420;2024-01-16T14:35:33;98008.94;;;3.42;46.36
48792;BME280;34587;48.816;9.420;2024-01-16T14:37:59;98015.78;;;3.27;46.36
48792;BME280;34587;48.816;9.420;2024-01-16T14:40:24;98010.72;;;3.15;47.15
48792;BME280;34587;48.816;9.420;2024-01-16T14:42:53;98012.41;;;3.13;46.24
48792;BME280;34587;48.816;9.420;2024-01-16T14:45:20;98014.13;;;2.87;46.20
48792;BME280;34587;48.816;9.420;2024-01-16T14:47:46;98010.69;;;2.52;47.18
48792;BME280;34587;48.816;9.420;2024-01-16T14:50:12;98014.03;;;2.31;48.97
48792;BME280;34587;48.816;9.420;2024-01-16T14:52:39;98009.81;;;2.40;47.92
48792;BME280;34587;48.816;9.420;2024-01-16T14:55:05;98008.09;;;2.29;48.97
48792;BME280;34587;48.816;9.420;2024-01-16T14:57:34;98008.91;;;2.22;49.73
48792;BME280;34587;48.816;9.420;2024-01-16T15:00:12;98004.72;;;2.43;50.54
48792;BME280;34587;48.816;9.420;2024-01-16T15:02:45;98005.53;;;2.29;50.16
48792;BME280;34587;48.816;9.420;2024-01-16T15:05:10;97999.53;;;2.21;48.14
48792;BME280;34587;48.816;9.420;2024-01-16T15:07:38;98002.03;;;2.03;49.03
48792;BME280;34587;48.816;9.420;2024-01-16T15:10:05;97998.59;;;1.92;50.23
48792;BME280;34587;48.816;9.420;2024-01-16T15:12:31;97990.03;;;1.84;50.79
48792;BME280;34587;48.816;9.420;2024-01-16T15:14:56;97995.16;;;1.74;50.94
48792;BME280;34587;48.816;9.420;2024-01-16T15:17:21;97996.81;;;1.69;51.08
48792;BME280;34587;48.816;9.420;2024-01-16T15:19:47;98000.16;;;1.56;53.04
48792;BME280;34587;48.816;9.420;2024-01-16T15:22:12;98011.16;;;1.49;55.88
48792;BME280;34587;48.816;9.420;2024-01-16T15:24:37;98007.69;;;1.32;58.58
48792;BME280;34587;48.816;9.420;2024-01-16T15:27:03;98010.16;;;1.25;56.08
48792;BME280;34587;48.816;9.420;2024-01-16T15:29:28;98010.81;;;0.95;61.53
48792;BME280;34587;48.816;9.420;2024-01-16T15:31:54;98025.19;;;0.86;61.20
48792;BME280;34587;48.816;9.420;2024-01-16T15:34:21;98031.22;;;0.92;61.06
48792;BME280;34587;48.816;9.420;2024-01-16T15:36:47;98028.53;;;0.79;61.27
48792;BME280;34587;48.816;9.420;2024-01-16T15:39:13;98028.47;;;0.69;61.99
48792;BME280;34587;48.816;9.420;2024-01-16T15:41:44;98016.47;;;0.62;61.96
48792;BME280;34587;48.816;9.420;2024-01-16T15:44:10;98011.06;;;0.29;66.59
48792;BME280;34587;48.816;9.420;2024-01-16T15:46:58;98009.91;;;-0.01;73.08
48792;BME280;34587;48.816;9.420;2024-01-16T15:49:24;98004.56;;;-0.22;76.56
48792;BME280;34587;48.816;9.420;2024-01-16T15:51:50;97996.75;;;-0.38;79.61
48792;BME280;34587;48.816;9.420;2024-01-16T15:54:15;97999.91;;;-0.57;79.90
48792;BME280;34587;48.816;9.420;2024-01-16T15:56:41;98008.19;;;-0.70;82.15
48792;BME280;34587;48.816;9.420;2024-01-16T15:59:07;97995.97;;;-0.93;83.31
48792;BME280;34587;48.816;9.420;2024-01-16T16:01:32;97996.59;;;-1.08;87.05
48792;BME280;34587;48.816;9.420;2024-01-16T16:03:58;98006.56;;;-1.21;90.66
48792;BME280;34587;48.816;9.420;2024-01-16T16:06:23;98000.53;;;-1.30;92.26
48792;BME280;34587;48.816;9.420;2024-01-16T16:08:49;98012.09;;;-1.45;97.64
48792;BME280;34587;48.816;9.420;2024-01-16T16:11:14;98018.84;;;-1.46;99.52
48792;BME280;34587;48.816;9.420;2024-01-16T16:13:39;98029.56;;;-1.64;100.00
48792;BME280;34587;48.816;9.420;2024-01-16T16:16:05;98026.94;;;-1.68;100.00
48792;BME280;34587;48.816;9.420;2024-01-16T16:18:30;98033.81;;;-1.64;100.00
48792;BME280;34587;48.816;9.420;2024-01-16T16:20:59;98037.78;;;-1.77;100.00
48792;BME280;34587;48.816;9.420;2024-01-16T16:23:26;98041.94;;;-1.81;100.00
48792;BME280;34587;48.816;9.420;2024-01-16T16:25:51;98043.66;;;-1.79;100.00
48792;BME280;34587;48.816;9.420;2024-01-16T16:28:17;98046.25;;;-1.78;100.00
48792;BME280;34587;48.816;9.420;2024-01-16T16:30:42;98052.06;;;-1.84;100.00
48792;BME280;34587;48.816;9.420;2024-01-16T16:33:08;98045.13;;;-1.91;100.00
48792;BME280;34587;48.816;9.420;2024-01-16T16:35:34;98040.81;;;-1.95;100.00
48792;BME280;34587;48.816;9.420;2024-01-16T16:37:59;98034.88;;;-1.97;100.00
48792;BME280;34587;48.816;9.420;2024-01-16T16:40:25;98040.81;;;-1.96;100.00
48792;BME280;34587;48.816;9.420;2024-01-16T16:42:50;98041.53;;;-2.02;100.00
48792;BME280;34587;48.816;9.420;2024-01-16T16:45:15;98043.13;;;-2.07;100.00
48792;BME280;34587;48.816;9.420;2024-01-16T16:47:42;98046.16;;;-2.23;100.00
48792;BME280;34587;48.816;9.420;2024-01-16T16:50:07;98052.72;;;-2.35;100.00
48792;BME280;34587;48.816;9.420;2024-01-16T16:52:34;98043.63;;;-2.25;100.00
48792;BME280;34587;48.816;9.420;2024-01-16T16:54:59;98044.88;;;-2.45;100.00
48792;BME280;34587;48.816;9.420;2024-01-16T16:57:24;98055.16;;;-2.39;100.00
48792;BME280;34587;48.816;9.420;2024-01-16T16:59:50;98055.06;;;-2.44;100.00
48792;BME280;34587;48.816;9.420;2024-01-16T17:02:15;98062.47;;;-2.53;100.00
48792;BME280;34587;48.816;9.420;2024-01-16T17:04:42;98061.81;;;-2.44;100.00
48792;BME280;34587;48.816;9.420;2024-01-16T17:07:07;98062.66;;;-2.44;100.00
48792;BME280;34587;48.816;9.420;2024-01-16T17:09:33;98056.53;;;-2.53;100.00
48792;BME280;34587;48.816;9.420;2024-01-16T17:11:58;98047.88;;;-2.62;100.00
48792;BME280;34587;48.816;9.420;2024-01-16T17:14:24;98051.97;;;-2.70;100.00
48792;BME280;34587;48.816;9.420;2024-01-16T17:16:50;98050.28;;;-2.69;100.00
48792;BME280;34587;48.816;9.420;2024-01-16T17:19:15;98050.31;;;-2.66;100.00
48792;BME280;34587;48.816;9.420;2024-01-16T17:21:40;98043.50;;;-2.70;100.00